createdAt,value
2023-02-18T00:01:23.907Z,99973.67
2023-02-18T00:05:25.864Z,99996.80
2023-02-18T00:09:29.240Z,99998.42
2023-02-18T00:13:33.336Z,100003.70
2023-02-18T00:17:35.998Z,100007.89
2023-02-18T00:21:39.350Z,100003.14
2023-02-18T00:25:41.141Z,100002.29
2023-02-18T00:29:42.982Z,99999.01
2023-02-18T00:33:44.860Z,99989.15
2023-02-18T00:37:46.861Z,100020.00
2023-02-18T00:41:48.722Z,99999.77
2023-02-18T00:45:50.677Z,100019.64
2023-02-18T00:49:52.617Z,100022.63
2023-02-18T00:53:55.099Z,100047.73
2023-02-18T00:57:57.275Z,100051.44
2023-02-18T01:01:59.242Z,100051.46
2023-02-18T01:06:01.165Z,100062.20
2023-02-18T01:10:03.862Z,100069.90
2023-02-18T01:14:06.674Z,100078.94
2023-02-18T01:18:09.863Z,100082.77
2023-02-18T01:22:11.806Z,100082.06
2023-02-18T01:26:13.670Z,100085.10
2023-02-18T01:30:17.481Z,100088.28
2023-02-18T01:34:20.518Z,100093.13
2023-02-18T01:38:23.372Z,100087.80
2023-02-18T01:42:27.593Z,100077.22
2023-02-18T01:46:29.418Z,100079.75
2023-02-18T01:50:34.631Z,100083.65
2023-02-18T01:54:47.421Z,100069.04
2023-02-18T01:58:51.017Z,100077.84
2023-02-18T02:02:53.989Z,100078.17
2023-02-18T02:07:17.590Z,100080.96
2023-02-18T02:11:53.012Z,100082.38
2023-02-18T02:16:11.469Z,100092.59
2023-02-18T02:20:25.127Z,100088.63
2023-02-18T02:25:14.854Z,100092.37
2023-02-18T02:29:31.789Z,100096.58
2023-02-18T02:34:05.195Z,100086.92
2023-02-18T02:38:21.602Z,100089.17
2023-02-18T02:42:52.543Z,100098.48
2023-02-18T02:47:04.273Z,100105.14
2023-02-18T02:51:05.986Z,100098.02
2023-02-18T02:55:11.812Z,100095.83
2023-02-18T02:59:24.910Z,100103.19
2023-02-18T03:03:39.775Z,100104.36
2023-02-18T03:08:03.490Z,100104.45
2023-02-18T03:12:59.857Z,100101.22
2023-02-18T03:17:11.402Z,100111.58
2023-02-18T03:21:36.823Z,100106.70
2023-02-18T03:25:39.900Z,100116.95
2023-02-18T03:29:44.808Z,100122.65
2023-02-18T03:33:54.882Z,100126.91
2023-02-18T03:38:09.395Z,100126.39
2023-02-18T03:42:11.974Z,100120.23
2023-02-18T03:46:13.799Z,100118.50
2023-02-18T03:50:16.131Z,100118.64
2023-02-18T03:54:18.408Z,100123.23
2023-02-18T03:58:20.275Z,100132.06
2023-02-18T04:02:23.192Z,100136.52
2023-02-18T04:06:25.432Z,100138.76
2023-02-18T04:10:27.388Z,100144.30
2023-02-18T04:14:30.806Z,100145.30
2023-02-18T04:18:33.010Z,100145.23
2023-02-18T04:22:35.815Z,100157.99
2023-02-18T04:26:37.970Z,100160.23
2023-02-18T04:30:40.061Z,100154.23
2023-02-18T04:34:42.133Z,100163.21
2023-02-18T04:38:44.953Z,100155.35
2023-02-18T04:42:46.889Z,100153.80
2023-02-18T04:46:48.869Z,100160.77
2023-02-18T04:50:50.754Z,100160.73
2023-02-18T04:54:53.191Z,100160.98
2023-02-18T04:58:56.183Z,100141.46
2023-02-18T05:02:59.023Z,100146.59
2023-02-18T05:07:01.410Z,100144.53
2023-02-18T05:11:09.607Z,100149.91
2023-02-18T05:15:11.522Z,100149.58
2023-02-18T05:19:17.217Z,100148.95
2023-02-18T05:23:20.966Z,100135.05
2023-02-18T05:27:22.745Z,100151.59
2023-02-18T05:31:25.658Z,100157.13
2023-02-18T05:35:27.773Z,100158.11
2023-02-18T05:39:31.298Z,100170.48
2023-02-18T05:43:54.024Z,100174.45
2023-02-18T05:47:56.814Z,100177.70
2023-02-18T05:51:58.899Z,100174.56
2023-02-18T05:56:00.592Z,100185.21
2023-02-18T06:00:05.805Z,100181.67
2023-02-18T06:04:08.097Z,100167.53
2023-02-18T06:08:10.064Z,100166.78
2023-02-18T06:12:12.324Z,100159.58
2023-02-18T06:16:14.846Z,100164.63
2023-02-18T06:20:17.314Z,100162.86
2023-02-18T06:24:19.583Z,100163.87
2023-02-18T06:28:21.749Z,100163.77
2023-02-18T06:32:24.091Z,100160.98
2023-02-18T06:36:26.123Z,100152.92
2023-02-18T06:40:27.965Z,100156.02
2023-02-18T06:44:31.472Z,100160.27
2023-02-18T06:48:33.557Z,100158.41
2023-02-18T06:52:37.506Z,100166.45
2023-02-18T06:56:40.455Z,100168.64
2023-02-18T07:00:42.556Z,100164.95
2023-02-18T07:04:45.879Z,100159.32
2023-02-18T07:08:47.872Z,100154.40
2023-02-18T07:12:49.634Z,100156.72
2023-02-18T07:16:52.303Z,100165.17
2023-02-18T07:20:54.102Z,100167.52
2023-02-18T07:24:56.425Z,100168.48
2023-02-18T07:28:58.196Z,100177.96
2023-02-18T07:33:00.766Z,100177.48
2023-02-18T07:37:08.676Z,100182.61
2023-02-18T07:41:19.185Z,100179.49
2023-02-18T07:45:21.060Z,100193.09
2023-02-18T07:49:23.564Z,100200.59
2023-02-18T07:53:26.297Z,100206.52
2023-02-18T07:57:28.244Z,100197.16
2023-02-18T08:01:30.091Z,100204.64
2023-02-18T08:05:31.981Z,100209.20
2023-02-18T08:09:34.040Z,100211.91
2023-02-18T08:13:38.720Z,100208.52
2023-02-18T08:17:40.798Z,100209.95
2023-02-18T08:21:42.799Z,100209.59
2023-02-18T08:25:47.474Z,100208.52
2023-02-18T08:29:53.599Z,100205.41
2023-02-18T08:33:56.773Z,100206.41
2023-02-18T08:37:59.607Z,100206.23
2023-02-18T08:42:02.448Z,100207.30
2023-02-18T08:46:05.297Z,100201.27
2023-02-18T08:50:07.936Z,100204.01
2023-02-18T08:54:09.629Z,100203.36
2023-02-18T08:58:12.240Z,100197.09
2023-02-18T09:02:14.781Z,100193.04
2023-02-18T09:06:16.483Z,100196.30
2023-02-18T09:10:18.335Z,100198.58
2023-02-18T09:14:21.188Z,100193.52
2023-02-18T09:18:23.699Z,100195.36
2023-02-18T09:22:25.690Z,100203.47
2023-02-18T09:26:27.455Z,100200.53
2023-02-18T09:30:29.379Z,100180.91
2023-02-18T09:34:31.730Z,100176.36
2023-02-18T09:38:34.007Z,100187.57
2023-02-18T09:42:36.291Z,100184.00
2023-02-18T09:46:51.167Z,100182.45
2023-02-18T09:50:53.653Z,100176.69
2023-02-18T09:54:56.279Z,100171.38
2023-02-18T09:59:03.722Z,100173.36
2023-02-18T10:03:13.855Z,100170.92
2023-02-18T10:07:28.461Z,100163.77
2023-02-18T10:11:34.828Z,100160.09
2023-02-18T10:15:38.149Z,100155.64
2023-02-18T10:19:40.897Z,100143.19
2023-02-18T10:24:13.662Z,100129.09
2023-02-18T10:28:18.536Z,100117.07
2023-02-18T10:32:28.163Z,100115.79
2023-02-18T10:36:45.734Z,100108.11
2023-02-18T10:40:47.401Z,100091.68
2023-02-18T10:44:58.326Z,100084.08
2023-02-18T10:49:04.700Z,100075.38
2023-02-18T10:53:25.347Z,100060.11
2023-02-18T10:57:27.795Z,100039.31
2023-02-18T11:01:30.937Z,100027.92
2023-02-18T11:05:35.807Z,100019.56
2023-02-18T11:09:47.189Z,100009.77
2023-02-18T11:13:54.835Z,99997.20
2023-02-18T11:18:11.429Z,99977.67
2023-02-18T11:22:23.746Z,99959.35
2023-02-18T11:26:36.477Z,99948.31
2023-02-18T11:30:45.672Z,99931.89
2023-02-18T11:34:49.831Z,99920.61
2023-02-18T11:39:05.742Z,99899.36
2023-02-18T11:43:15.186Z,99885.34
2023-02-18T11:47:16.677Z,99886.08
2023-02-18T11:51:35.625Z,99875.41
2023-02-18T11:55:37.581Z,99864.16
2023-02-18T11:59:40.558Z,99852.08
2023-02-18T12:03:56.045Z,99839.74
2023-02-18T12:08:02.857Z,99828.90
2023-02-18T12:12:15.474Z,99810.52
2023-02-18T12:16:26.703Z,99802.36
2023-02-18T12:20:43.901Z,99794.54
2023-02-18T12:25:02.659Z,99780.08
2023-02-18T12:29:31.661Z,99769.18
2023-02-18T12:33:45.416Z,99757.05
2023-02-18T12:38:01.660Z,99747.83
2023-02-18T12:42:22.480Z,99724.21
2023-02-18T12:46:34.183Z,99721.76
2023-02-18T12:50:42.938Z,99704.08
2023-02-18T12:55:14.551Z,99695.04
2023-02-18T12:59:55.311Z,99681.69
2023-02-18T13:04:00.474Z,99667.72
2023-02-18T13:08:36.326Z,99656.33
2023-02-18T13:12:58.165Z,99640.25
2023-02-18T13:17:03.366Z,99626.74
2023-02-18T13:21:09.309Z,99617.98
2023-02-18T13:25:13.724Z,99613.65
2023-02-18T13:29:28.137Z,99605.15
2023-02-18T13:33:58.228Z,99600.86
2023-02-18T13:38:34.955Z,99586.94
2023-02-18T13:42:37.920Z,99573.48
2023-02-18T13:46:49.470Z,99552.91
2023-02-18T13:50:53.700Z,99535.54
2023-02-18T13:54:55.675Z,99517.48
2023-02-18T13:59:02.230Z,99511.77
2023-02-18T14:03:49.849Z,99503.50
2023-02-18T14:08:06.398Z,99488.82
2023-02-18T14:12:30.044Z,99480.10
2023-02-18T14:17:09.777Z,99480.24
2023-02-18T14:21:11.366Z,99467.01
2023-02-18T14:25:35.194Z,99457.73
2023-02-18T14:29:37.184Z,99465.44
2023-02-18T14:34:05.004Z,99455.21
2023-02-18T14:38:30.357Z,99462.89
2023-02-18T14:42:52.762Z,99461.86
2023-02-18T14:47:35.327Z,99469.48
2023-02-18T14:51:41.604Z,99465.96
2023-02-18T14:55:48.126Z,99469.46
2023-02-18T14:59:56.745Z,99456.91
2023-02-18T15:03:58.448Z,99462.55
2023-02-18T15:08:03.437Z,99464.05
2023-02-18T15:12:08.481Z,99468.13
2023-02-18T15:16:26.380Z,99446.41
2023-02-18T15:20:31.996Z,99466.11
2023-02-18T15:24:37.853Z,99461.15
2023-02-18T15:28:51.201Z,99454.04
2023-02-18T15:32:58.176Z,99445.27
2023-02-18T15:37:01.426Z,99462.09
2023-02-18T15:41:03.464Z,99463.73
2023-02-18T15:45:17.637Z,99470.98
2023-02-18T15:49:21.966Z,99455.38
2023-02-18T15:53:25.566Z,99444.83
2023-02-18T15:57:29.890Z,99430.77
2023-02-18T16:01:31.684Z,99435.08
2023-02-18T16:05:37.526Z,99438.08
2023-02-18T16:09:39.475Z,99426.97
2023-02-18T16:13:47.320Z,99425.57
2023-02-18T16:17:49.200Z,99412.20
2023-02-18T16:21:51.003Z,99424.25
2023-02-18T16:25:52.786Z,99440.05
2023-02-18T16:30:00.645Z,99446.92
2023-02-18T16:34:03.544Z,99436.05
2023-02-18T16:38:06.637Z,99441.15
2023-02-18T16:42:10.833Z,99471.40
2023-02-18T16:46:23.805Z,99472.06
2023-02-18T16:50:30.029Z,99469.05
2023-02-18T16:54:31.689Z,99473.36
2023-02-18T16:58:33.868Z,99497.02
2023-02-18T17:02:36.071Z,99503.64
2023-02-18T17:06:37.967Z,99492.27
2023-02-18T17:10:39.946Z,99484.73
2023-02-18T17:14:43.096Z,99512.09
2023-02-18T17:18:46.023Z,99501.31
2023-02-18T17:22:47.777Z,99498.78
2023-02-18T17:26:49.680Z,99503.05
2023-02-18T17:30:56.724Z,99517.80
2023-02-18T17:34:58.924Z,99511.08
2023-02-18T17:39:02.737Z,99534.20
2023-02-18T17:43:04.966Z,99518.64
2023-02-18T17:47:06.799Z,99533.55
2023-02-18T17:51:23.869Z,99550.25
2023-02-18T17:55:28.485Z,99546.03
2023-02-18T17:59:30.297Z,99550.89
2023-02-18T18:03:32.203Z,99587.36
2023-02-18T18:07:33.975Z,99563.93
2023-02-18T18:11:38.561Z,99573.13
2023-02-18T18:15:43.162Z,99574.64
2023-02-18T18:19:44.958Z,99592.88
2023-02-18T18:23:46.763Z,99580.60
2023-02-18T18:27:51.774Z,99609.45
2023-02-18T18:31:53.491Z,99612.92
2023-02-18T18:35:57.380Z,99629.27
2023-02-18T18:40:00.683Z,99651.97
2023-02-18T18:44:05.930Z,99655.98
2023-02-18T18:48:07.719Z,99673.81
2023-02-18T18:52:15.804Z,99669.84
2023-02-18T18:56:17.570Z,99685.63
2023-02-18T19:00:28.055Z,99699.67
2023-02-18T19:04:29.776Z,99686.48
2023-02-18T19:08:32.805Z,99722.26
2023-02-18T19:12:34.561Z,99728.33
2023-02-18T19:16:38.691Z,99730.68
2023-02-18T19:20:42.970Z,99734.80
2023-02-18T19:24:47.840Z,99741.02
2023-02-18T19:28:50.024Z,99749.14
2023-02-18T19:32:55.310Z,99743.57
2023-02-18T19:36:58.060Z,99754.77
2023-02-18T19:41:11.857Z,99770.89
2023-02-18T19:45:14.308Z,99774.68
2023-02-18T19:49:16.039Z,99775.16
2023-02-18T19:53:18.717Z,99762.98
2023-02-18T19:57:20.699Z,99786.95
2023-02-18T20:01:23.388Z,99794.19
2023-02-18T20:05:25.568Z,99806.98
2023-02-18T20:09:27.382Z,99883.27
2023-02-18T20:13:33.929Z,99874.29
2023-02-18T20:17:38.275Z,99898.61
2023-02-18T20:21:40.296Z,99898.80
2023-02-18T20:25:42.135Z,99912.04
2023-02-18T20:29:43.968Z,99903.52
2023-02-18T20:33:46.514Z,99905.16
2023-02-18T20:37:48.118Z,99910.41
2023-02-18T20:41:50.440Z,99911.65
2023-02-18T20:45:52.808Z,99924.38
2023-02-18T20:49:54.549Z,99925.55
2023-02-18T20:53:56.174Z,99930.50
2023-02-18T20:57:57.951Z,99933.67
2023-02-18T21:02:00.476Z,99936.54
2023-02-18T21:06:05.221Z,99946.19
2023-02-18T21:10:07.998Z,99954.66
2023-02-18T21:14:10.155Z,99962.13
2023-02-18T21:18:12.124Z,99964.80
2023-02-18T21:22:13.754Z,99973.38
2023-02-18T21:26:18.085Z,99979.82
2023-02-18T21:30:19.996Z,99977.71
2023-02-18T21:34:22.223Z,99981.86
2023-02-18T21:38:23.975Z,99998.58
2023-02-18T21:42:25.753Z,100001.27
2023-02-18T21:46:30.707Z,100002.52
2023-02-18T21:50:32.728Z,99998.88
2023-02-18T21:54:39.707Z,100002.64
2023-02-18T21:58:43.553Z,100009.28
2023-02-18T22:02:45.279Z,100005.38
2023-02-18T22:06:47.186Z,100007.31
2023-02-18T22:10:50.682Z,100009.06
2023-02-18T22:14:52.731Z,100009.26
2023-02-18T22:18:56.662Z,100020.67
2023-02-18T22:22:58.373Z,100020.85
2023-02-18T22:27:00.905Z,100023.44
2023-02-18T22:31:08.916Z,100022.63
2023-02-18T22:35:11.004Z,100027.48
2023-02-18T22:39:13.264Z,100028.21
2023-02-18T22:43:15.624Z,100032.54
2023-02-18T22:47:17.624Z,100034.41
2023-02-18T22:51:24.446Z,100035.21
2023-02-18T22:55:26.504Z,100037.37
2023-02-18T22:59:29.080Z,100046.02
2023-02-18T23:03:30.791Z,100046.00
2023-02-18T23:07:32.358Z,100049.63
2023-02-18T23:11:34.748Z,100047.08
2023-02-18T23:15:36.747Z,100037.32
2023-02-18T23:19:41.299Z,100036.19
2023-02-18T23:23:44.914Z,100038.06
2023-02-18T23:27:47.060Z,100037.47
2023-02-18T23:31:48.910Z,100039.35
2023-02-18T23:35:51.158Z,100038.17
2023-02-18T23:39:53.285Z,100037.44
2023-02-18T23:43:56.065Z,100036.55
2023-02-18T23:47:58.076Z,100032.60
2023-02-18T23:51:59.886Z,100032.05
2023-02-18T23:56:14.670Z,100025.80
